CheckWX is a tool to help pilots better visualize weather data.  It is not intended as a substitute for an official pre-flight weather briefing.

03:31:08 UTC

F00 METAR
Jones Field Airport
Bonham, Texas, USA
Current

16 mins ago

KF00 240315Z AUTO 18010G18KT 10SM SCT042 BKN100 BKN120 19/12 A3001 RMK AO2 T01850125
Observed
Mar-24 @ 03:15 UTC
Wind
  • 180° at 10 KTS
  • Gusting to 18 KTS
Visibility
10 SM
Flight Rules
VFR
Cloud Levels
  • Scattered at 4,200' AGL
  • Broken at 10,000' AGL
  • Broken at 12,000' AGL
Temperature
19°C / 66°F
Dewpoint
13°C / 55°F
Humidity
68%
Altimeter
30.01" Hg
Pressure
1016.22 hPa
Previous

36 mins ago

KF00 240255Z AUTO 18011KT 10SM SCT042 SCT110 19/13 A3001 RMK AO2 T01870127
Observed
Mar-24 @ 02:55 UTC
Wind
  • 180° at 11 KTS
Visibility
10 SM
Flight Rules
VFR
Cloud Levels
  • Scattered at 4,200' AGL
  • Scattered at 11,000' AGL
Temperature
19°C / 66°F
Dewpoint
13°C / 55°F
Humidity
68%
Altimeter
30.01" Hg
Pressure
1016.22 hPa
Previous

56 mins ago

KF00 240235Z AUTO 17010KT 10SM BKN040 19/13 A3000 RMK AO2 LTG DSNT E T01880129
Observed
Mar-24 @ 02:35 UTC
Wind
  • 170° at 10 KTS
Visibility
10 SM
Flight Rules
VFR
Cloud Levels
  • Broken at 4,000' AGL
Temperature
19°C / 66°F
Dewpoint
13°C / 55°F
Humidity
68%
Altimeter
30" Hg
Pressure
1015.92 hPa